createdAt,value
2023-05-13T00:00:06.322Z,82.91
2023-05-13T00:01:06.327Z,83.42
2023-05-13T00:02:06.326Z,83.15
2023-05-13T00:03:06.459Z,83.86
2023-05-13T00:04:06.323Z,84.37
2023-05-13T00:05:06.336Z,84.06
2023-05-13T00:06:06.431Z,84.27
2023-05-13T00:07:06.333Z,84.20
2023-05-13T00:08:06.331Z,83.76
2023-05-13T00:09:06.339Z,84.41
2023-05-13T00:10:06.334Z,84.71
2023-05-13T00:11:06.344Z,84.27
2023-05-13T00:12:06.331Z,84.41
2023-05-13T00:13:06.349Z,84.77
2023-05-13T00:14:06.345Z,84.47
2023-05-13T00:15:06.345Z,84.11
2023-05-13T00:16:06.369Z,84.31
2023-05-13T00:17:06.351Z,84.00
2023-05-13T00:18:06.373Z,84.51
2023-05-13T00:19:06.451Z,84.51
2023-05-13T00:20:06.335Z,84.41
2023-05-13T00:21:06.346Z,84.41
2023-05-13T00:22:06.380Z,84.00
2023-05-13T00:23:06.350Z,85.02
2023-05-13T00:24:06.344Z,84.81
2023-05-13T00:25:06.350Z,84.41
2023-05-13T00:26:06.361Z,84.71
2023-05-13T00:27:06.380Z,84.91
2023-05-13T00:28:06.345Z,84.61
2023-05-13T00:29:06.350Z,84.51
2023-05-13T00:30:06.345Z,84.77
2023-05-13T00:31:06.403Z,84.20
2023-05-13T00:32:06.383Z,84.20
2023-05-13T00:33:06.392Z,84.61
2023-05-13T00:34:06.347Z,84.71
2023-05-13T00:35:06.353Z,84.71
2023-05-13T00:36:06.369Z,84.41
2023-05-13T00:37:06.677Z,84.20
2023-05-13T00:38:06.388Z,84.81
2023-05-13T00:39:06.354Z,84.61
2023-05-13T00:40:06.355Z,84.71
2023-05-13T00:41:06.365Z,84.91
2023-05-13T00:42:06.354Z,84.91
2023-05-13T00:43:06.379Z,84.77
2023-05-13T00:44:06.368Z,84.27
2023-05-13T00:45:06.356Z,84.87
2023-05-13T00:46:06.471Z,84.81
2023-05-13T00:47:06.364Z,85.62
2023-05-13T00:48:06.356Z,86.13
2023-05-13T00:49:06.364Z,85.31
2023-05-13T00:50:06.372Z,85.52
2023-05-13T00:51:06.370Z,86.22
2023-05-13T00:52:06.358Z,85.11
2023-05-13T00:53:06.361Z,85.31
2023-05-13T00:54:06.385Z,85.42
2023-05-13T00:55:06.374Z,84.81
2023-05-13T00:56:06.372Z,84.91
2023-05-13T00:57:06.365Z,84.71
2023-05-13T00:58:06.383Z,84.81
2023-05-13T00:59:06.380Z,84.51
2023-05-13T01:00:06.365Z,84.81
2023-05-13T01:01:06.398Z,84.20
2023-05-13T01:02:06.389Z,84.91
2023-05-13T01:03:06.566Z,84.31
2023-05-13T01:04:06.376Z,84.11
2023-05-13T01:05:06.372Z,84.41
2023-05-13T01:06:06.370Z,84.51
2023-05-13T01:07:06.379Z,84.20
2023-05-13T01:08:06.374Z,84.41
2023-05-13T01:09:06.375Z,84.31
2023-05-13T01:10:06.468Z,84.81
2023-05-13T01:11:06.371Z,84.81
2023-05-13T01:12:06.369Z,85.02
2023-05-13T01:13:06.379Z,85.02
2023-05-13T01:14:06.371Z,85.52
2023-05-13T01:15:06.383Z,86.13
2023-05-13T01:16:06.429Z,86.22
2023-05-13T01:17:06.415Z,86.13
2023-05-13T01:18:06.491Z,85.02
2023-05-13T01:19:06.420Z,85.93
2023-05-13T01:20:06.376Z,86.22
2023-05-13T01:21:06.385Z,85.31
2023-05-13T01:22:06.372Z,86.33
2023-05-13T01:23:06.383Z,86.13
2023-05-13T01:24:06.429Z,85.62
2023-05-13T01:25:06.384Z,85.56
2023-05-13T01:26:06.400Z,85.96
2023-05-13T01:27:06.386Z,86.16
2023-05-13T01:28:06.380Z,85.46
2023-05-13T01:29:06.397Z,85.46
2023-05-13T01:30:06.374Z,85.52
2023-05-13T01:31:06.450Z,85.16
2023-05-13T01:32:06.380Z,85.46
2023-05-13T01:33:06.415Z,86.22
2023-05-13T01:34:06.400Z,85.36
2023-05-13T01:35:06.395Z,85.56
2023-05-13T01:36:06.381Z,85.66
2023-05-13T01:37:06.388Z,86.27
2023-05-13T01:38:06.390Z,85.76
2023-05-13T01:39:06.390Z,85.86
2023-05-13T01:40:17.032Z,85.76
2023-05-13T01:41:06.390Z,85.86
2023-05-13T01:42:06.409Z,86.07
2023-05-13T01:43:06.387Z,86.37
2023-05-13T01:44:06.385Z,86.37
2023-05-13T01:45:06.395Z,86.47
2023-05-13T01:46:06.420Z,86.41
2023-05-13T01:47:06.397Z,86.71
2023-05-13T01:48:06.526Z,87.62
2023-05-13T01:49:06.393Z,86.82
2023-05-13T01:50:06.391Z,87.12
2023-05-13T01:51:06.394Z,87.02
2023-05-13T01:52:06.392Z,86.76
2023-05-13T01:53:06.390Z,87.66
2023-05-13T01:54:06.718Z,87.05
2023-05-13T01:55:06.394Z,87.32
2023-05-13T01:56:06.392Z,87.66
2023-05-13T01:57:06.427Z,87.71
2023-05-13T01:58:06.417Z,87.87
2023-05-13T01:59:06.405Z,86.96
2023-05-13T02:00:06.393Z,87.16
2023-05-13T02:01:06.402Z,87.46
2023-05-13T02:02:06.456Z,87.36
2023-05-13T02:03:06.477Z,87.26
2023-05-13T02:04:06.615Z,87.16
2023-05-13T02:05:06.402Z,87.46
2023-05-13T02:06:06.398Z,87.20
2023-05-13T02:07:06.415Z,87.71
2023-05-13T02:08:06.399Z,87.66
2023-05-13T02:09:06.402Z,87.26
2023-05-13T02:10:06.418Z,87.40
2023-05-13T02:11:06.404Z,87.81
2023-05-13T02:12:06.406Z,87.66
2023-05-13T02:13:06.405Z,87.87
2023-05-13T02:14:06.423Z,87.40
2023-05-13T02:15:06.430Z,87.77
2023-05-13T02:16:06.442Z,87.97
2023-05-13T02:17:06.405Z,88.11
2023-05-13T02:18:06.453Z,88.21
2023-05-13T02:19:06.516Z,88.72
2023-05-13T02:20:06.409Z,88.42
2023-05-13T02:21:06.402Z,88.96
2023-05-13T02:22:06.414Z,88.72
2023-05-13T02:23:06.409Z,88.72
2023-05-13T02:24:06.746Z,88.56
2023-05-13T02:25:06.410Z,88.62
2023-05-13T02:26:06.422Z,88.56
2023-05-13T02:27:06.413Z,88.56
2023-05-13T02:28:06.410Z,88.86
2023-05-13T02:29:06.413Z,88.72
2023-05-13T02:30:06.457Z,88.66
2023-05-13T02:31:06.411Z,88.76
2023-05-13T02:32:06.506Z,88.96
2023-05-13T02:33:06.486Z,88.62
2023-05-13T02:34:06.418Z,88.42
2023-05-13T02:35:06.413Z,88.31
2023-05-13T02:36:06.421Z,88.35
2023-05-13T02:37:06.427Z,88.62
2023-05-13T02:38:06.431Z,88.76
2023-05-13T02:39:06.411Z,88.96
2023-05-13T02:40:06.423Z,88.56
2023-05-13T02:41:06.421Z,89.26
2023-05-13T02:42:06.420Z,89.06
2023-05-13T02:43:06.426Z,88.76
2023-05-13T02:44:06.419Z,89.01
2023-05-13T02:45:06.420Z,88.56
2023-05-13T02:46:06.516Z,88.96
2023-05-13T02:47:06.421Z,89.31
2023-05-13T02:48:06.461Z,89.31
2023-05-13T02:49:06.428Z,89.01
2023-05-13T02:50:06.442Z,89.51
2023-05-13T02:51:06.425Z,89.72
2023-05-13T02:52:06.427Z,89.31
2023-05-13T02:53:06.419Z,89.65
2023-05-13T02:54:06.427Z,89.61
2023-05-13T02:55:06.472Z,89.31
2023-05-13T02:56:06.429Z,89.45
2023-05-13T02:57:06.426Z,89.31
2023-05-13T02:58:06.444Z,89.65
2023-05-13T02:59:06.426Z,89.45
2023-05-13T03:00:06.452Z,89.61
2023-05-13T03:01:06.516Z,89.51
2023-05-13T03:02:06.492Z,89.31
2023-05-13T03:03:06.526Z,89.35
2023-05-13T03:04:06.432Z,89.41
2023-05-13T03:05:06.432Z,89.25
2023-05-13T03:06:06.436Z,89.51
2023-05-13T03:07:06.428Z,89.25
2023-05-13T03:08:06.433Z,89.76
2023-05-13T03:09:06.426Z,89.76
2023-05-13T03:10:06.428Z,89.76
2023-05-13T03:11:06.437Z,90.00
2023-05-13T03:12:06.434Z,89.86
2023-05-13T03:13:06.429Z,89.76
2023-05-13T03:14:06.438Z,89.76
2023-05-13T03:15:07.840Z,89.65
2023-05-13T03:16:06.474Z,89.96
2023-05-13T03:17:06.432Z,89.86
2023-05-13T03:18:06.454Z,89.96
2023-05-13T03:19:06.515Z,89.76
2023-05-13T03:20:06.433Z,89.55
2023-05-13T03:21:06.432Z,89.76
2023-05-13T03:22:06.441Z,89.25
2023-05-13T03:23:06.432Z,89.55
2023-05-13T03:24:06.436Z,89.65
2023-05-13T03:25:06.438Z,89.45
2023-05-13T03:26:06.434Z,89.15
2023-05-13T03:27:06.438Z,89.55
2023-05-13T03:28:06.437Z,89.25
2023-05-13T03:29:06.441Z,89.55
2023-05-13T03:30:06.434Z,89.21
2023-05-13T03:31:06.479Z,89.51
2023-05-13T03:32:06.453Z,89.35
2023-05-13T03:33:06.446Z,89.35
2023-05-13T03:34:06.458Z,89.55
2023-05-13T03:35:06.467Z,89.45
2023-05-13T03:36:06.441Z,89.76
2023-05-13T03:37:06.464Z,89.86
2023-05-13T03:38:06.441Z,89.15
2023-05-13T03:39:06.439Z,89.45
2023-05-13T03:40:06.439Z,89.35
2023-05-13T03:41:06.431Z,89.45
2023-05-13T03:42:06.451Z,89.41
2023-05-13T03:43:06.432Z,89.35
2023-05-13T03:44:06.446Z,89.55
2023-05-13T03:45:06.434Z,89.86
2023-05-13T03:46:06.436Z,89.86
2023-05-13T03:47:06.472Z,89.96
2023-05-13T03:48:06.479Z,90.36
2023-05-13T03:49:06.435Z,90.06
2023-05-13T03:50:06.469Z,90.26
2023-05-13T03:51:06.441Z,90.36
2023-05-13T03:52:06.439Z,89.86
2023-05-13T03:53:06.431Z,90.26
2023-05-13T03:54:06.449Z,89.86
2023-05-13T03:55:06.464Z,90.06
2023-05-13T03:56:06.438Z,90.26
2023-05-13T03:57:06.438Z,90.47
2023-05-13T03:58:06.446Z,90.16
2023-05-13T03:59:06.446Z,90.26
2023-05-13T04:00:06.437Z,90.00
2023-05-13T04:01:06.438Z,90.00
2023-05-13T04:02:06.510Z,90.31
2023-05-13T04:03:06.462Z,90.41
2023-05-13T04:04:06.438Z,90.51
2023-05-13T04:05:06.454Z,90.00
2023-05-13T04:06:06.477Z,90.51
2023-05-13T04:07:06.442Z,90.16
2023-05-13T04:08:06.442Z,90.06
2023-05-13T04:09:06.441Z,90.26
2023-05-13T04:10:06.450Z,90.36
2023-05-13T04:11:06.446Z,90.47
2023-05-13T04:12:06.445Z,90.51
2023-05-13T04:13:06.445Z,90.26
2023-05-13T04:14:06.447Z,89.86
2023-05-13T04:15:06.446Z,90.16
2023-05-13T04:16:06.456Z,89.45
2023-05-13T04:17:06.565Z,90.16
2023-05-13T04:18:06.582Z,90.26
2023-05-13T04:19:06.492Z,90.16
2023-05-13T04:20:06.457Z,90.06
2023-05-13T04:21:06.441Z,89.76
2023-05-13T04:22:06.467Z,89.55
2023-05-13T04:23:06.446Z,90.06
2023-05-13T04:24:06.447Z,89.72
2023-05-13T04:25:06.439Z,90.36
2023-05-13T04:26:06.442Z,90.16
2023-05-13T04:27:06.462Z,89.86
2023-05-13T04:28:06.456Z,89.96
2023-05-13T04:29:06.443Z,89.92
2023-05-13T04:30:06.461Z,89.81
2023-05-13T04:31:06.453Z,89.92
2023-05-13T04:32:06.490Z,89.61
2023-05-13T04:33:06.506Z,89.81
2023-05-13T04:34:06.446Z,89.72
2023-05-13T04:35:06.443Z,89.81
2023-05-13T04:36:06.446Z,89.67
2023-05-13T04:37:06.441Z,89.57
2023-05-13T04:38:06.520Z,89.67
2023-05-13T04:39:06.441Z,89.57
2023-05-13T04:40:06.451Z,89.26
2023-05-13T04:41:06.449Z,89.47
2023-05-13T04:42:06.451Z,89.26
2023-05-13T04:43:06.451Z,89.67
2023-05-13T04:44:06.451Z,89.23
2023-05-13T04:45:06.445Z,89.06
2023-05-13T04:46:06.480Z,89.53
2023-05-13T04:47:06.446Z,89.23
2023-05-13T04:48:06.530Z,89.43
2023-05-13T04:49:06.449Z,89.53
2023-05-13T04:50:06.459Z,89.53
2023-05-13T04:51:06.449Z,89.23
2023-05-13T04:52:06.440Z,89.08
2023-05-13T04:53:06.451Z,89.79
2023-05-13T04:54:06.469Z,89.43
2023-05-13T04:55:06.444Z,88.88
2023-05-13T04:56:06.448Z,88.88
2023-05-13T04:57:06.447Z,88.98
2023-05-13T04:58:06.452Z,88.88
2023-05-13T04:59:06.446Z,88.88
2023-05-13T05:00:06.467Z,89.28
2023-05-13T05:01:06.447Z,88.84
2023-05-13T05:02:06.522Z,88.37
2023-05-13T05:03:06.463Z,89.18
2023-05-13T05:04:06.471Z,87.82
2023-05-13T05:05:06.446Z,87.62
2023-05-13T05:06:06.453Z,87.22
2023-05-13T05:07:06.451Z,86.98
2023-05-13T05:08:06.450Z,86.37
2023-05-13T05:09:06.454Z,86.37
2023-05-13T05:10:06.475Z,86.57
2023-05-13T05:11:06.460Z,86.67
2023-05-13T05:12:06.456Z,86.33
2023-05-13T05:13:06.466Z,85.62
2023-05-13T05:14:06.449Z,86.53
2023-05-13T05:15:06.450Z,85.93
2023-05-13T05:16:06.447Z,86.13
2023-05-13T05:17:06.497Z,85.02
2023-05-13T05:18:06.597Z,84.81
2023-05-13T05:19:06.484Z,85.48
2023-05-13T05:20:06.467Z,84.27
2023-05-13T05:21:06.459Z,84.37
2023-05-13T05:22:06.453Z,84.06
2023-05-13T05:23:06.467Z,84.17
2023-05-13T05:24:06.588Z,84.63
2023-05-13T05:25:06.453Z,84.63
2023-05-13T05:26:11.528Z,84.12
2023-05-13T05:27:06.451Z,84.33
2023-05-13T05:28:06.467Z,84.03
2023-05-13T05:29:06.462Z,83.92
2023-05-13T05:30:06.460Z,83.72
2023-05-13T05:31:06.489Z,84.43
2023-05-13T05:32:06.526Z,84.49
2023-05-13T05:33:06.580Z,83.78
2023-05-13T05:34:06.455Z,82.64
2023-05-13T05:35:06.464Z,83.38
2023-05-13T05:36:06.460Z,82.84
2023-05-13T05:37:06.452Z,82.93
2023-05-13T05:38:06.464Z,82.64
2023-05-13T05:39:06.457Z,83.14
2023-05-13T05:40:06.472Z,83.14
2023-05-13T05:41:06.453Z,82.84
2023-05-13T05:43:06.455Z,81.99
2023-05-13T05:44:06.453Z,82.59
2023-05-13T05:45:06.454Z,82.59
2023-05-13T05:46:06.520Z,82.90
2023-05-13T05:47:06.457Z,82.50
2023-05-13T05:48:06.490Z,82.79
2023-05-13T05:49:06.458Z,81.68
2023-05-13T05:50:06.462Z,81.55
2023-05-13T05:51:06.470Z,81.55
2023-05-13T05:52:06.482Z,81.45
2023-05-13T05:53:06.455Z,81.65
2023-05-13T05:54:06.481Z,81.65
2023-05-13T05:55:06.467Z,81.61
2023-05-13T05:56:06.471Z,81.01
2023-05-13T05:57:06.453Z,80.00
2023-05-13T05:58:06.534Z,81.21
2023-05-13T05:59:06.467Z,79.90
2023-05-13T06:00:06.464Z,80.06
2023-05-13T06:01:06.463Z,80.30
2023-05-13T06:02:06.487Z,79.76
2023-05-13T06:03:06.724Z,80.57
2023-05-13T06:04:06.649Z,79.46
2023-05-13T06:05:06.468Z,79.46
2023-05-13T06:06:06.463Z,79.76
2023-05-13T06:07:06.521Z,79.82
2023-05-13T06:08:06.492Z,79.32
2023-05-13T06:09:06.466Z,80.52
2023-05-13T06:10:08.300Z,79.72
2023-05-13T06:11:06.465Z,78.51
2023-05-13T06:12:06.466Z,78.67
2023-05-13T06:13:06.464Z,78.67
2023-05-13T06:14:06.494Z,78.58
2023-05-13T06:15:06.476Z,78.34
2023-05-13T06:16:06.497Z,78.44
2023-05-13T06:17:06.477Z,79.14
2023-05-13T06:18:06.505Z,79.10
2023-05-13T06:19:06.639Z,78.56
2023-05-13T06:20:06.471Z,78.36
2023-05-13T06:21:06.477Z,78.16
2023-05-13T06:22:06.480Z,78.53
2023-05-13T06:23:06.473Z,78.03
2023-05-13T06:24:06.807Z,78.29
2023-05-13T06:25:06.470Z,78.19
2023-05-13T06:26:06.479Z,78.09
2023-05-13T06:27:06.481Z,77.72
2023-05-13T06:28:06.476Z,77.09
2023-05-13T06:29:06.478Z,77.39
2023-05-13T06:30:06.509Z,77.15
2023-05-13T06:31:06.585Z,76.75
2023-05-13T06:32:06.477Z,77.05
2023-05-13T06:33:06.518Z,77.15
2023-05-13T06:34:06.486Z,76.51
2023-05-13T06:35:06.491Z,75.37
2023-05-13T06:36:06.477Z,76.78
2023-05-13T06:37:06.485Z,76.98
2023-05-13T06:38:06.492Z,75.84
2023-05-13T06:39:06.494Z,75.23
2023-05-13T06:40:06.482Z,72.83
2023-05-13T06:41:06.487Z,74.54
2023-05-13T06:42:06.489Z,74.50
2023-05-13T06:43:06.486Z,73.80
2023-05-13T06:44:06.484Z,73.30
2023-05-13T06:45:06.488Z,73.19
2023-05-13T06:46:06.507Z,71.00
2023-05-13T06:47:06.542Z,71.19
2023-05-13T06:48:06.562Z,72.86
2023-05-13T06:49:06.494Z,73.26
2023-05-13T06:50:06.495Z,71.36
2023-05-13T06:51:06.504Z,72.03
2023-05-13T06:52:06.493Z,71.53
2023-05-13T06:53:06.496Z,72.59
2023-05-13T06:54:06.498Z,71.33
2023-05-13T06:55:06.510Z,70.09
2023-05-13T06:56:06.504Z,70.29
2023-05-13T06:57:06.498Z,69.49
2023-05-13T06:58:06.504Z,69.36
2023-05-13T06:59:06.536Z,69.06
2023-05-13T07:00:06.501Z,69.76
2023-05-13T07:01:06.583Z,69.06
2023-05-13T07:02:06.523Z,69.32
2023-05-13T07:03:06.542Z,69.13
2023-05-13T07:04:06.537Z,69.43
2023-05-13T07:05:06.512Z,69.73
2023-05-13T07:06:06.510Z,67.93
2023-05-13T07:07:06.505Z,67.80
2023-05-13T07:08:06.519Z,67.10
2023-05-13T07:09:08.415Z,68.06
2023-05-13T07:10:06.531Z,66.36
2023-05-13T07:11:06.540Z,65.97
2023-05-13T07:12:06.513Z,65.37
2023-05-13T07:13:06.512Z,65.47
2023-05-13T07:14:06.510Z,66.33
2023-05-13T07:15:06.519Z,66.83
2023-05-13T07:16:06.519Z,66.63
2023-05-13T07:17:06.564Z,67.00
2023-05-13T07:18:06.586Z,67.86
2023-05-13T07:19:06.553Z,67.66
2023-05-13T07:20:06.518Z,66.74
2023-05-13T07:21:06.554Z,66.74
2023-05-13T07:22:06.531Z,65.57
2023-05-13T07:23:06.535Z,65.05
2023-05-13T07:24:06.532Z,63.45
2023-05-13T07:25:06.534Z,63.68
2023-05-13T07:26:06.532Z,63.75
2023-05-13T07:27:06.532Z,63.85
2023-05-13T07:28:06.533Z,63.88
2023-05-13T07:29:06.542Z,64.18
2023-05-13T07:30:06.549Z,65.17
2023-05-13T07:31:06.567Z,62.95
2023-05-13T07:32:06.575Z,63.39
2023-05-13T07:33:06.554Z,63.06
2023-05-13T07:34:06.563Z,63.43
2023-05-13T07:35:06.547Z,62.60
2023-05-13T07:36:06.547Z,60.09
2023-05-13T07:37:06.548Z,59.93
2023-05-13T07:38:06.557Z,59.78
2023-05-13T07:39:07.103Z,58.65
2023-05-13T07:40:06.570Z,57.86
2023-05-13T07:41:06.556Z,57.17
2023-05-13T07:42:06.554Z,58.11
2023-05-13T07:43:06.566Z,58.07
2023-05-13T07:44:06.557Z,57.09
2023-05-13T07:45:06.564Z,56.79
2023-05-13T07:46:06.564Z,56.32
2023-05-13T07:47:06.623Z,57.04
2023-05-13T07:48:06.639Z,57.41
2023-05-13T07:49:06.577Z,56.69
2023-05-13T07:50:06.600Z,56.67
2023-05-13T07:51:06.584Z,56.93
2023-05-13T07:52:06.582Z,57.03
2023-05-13T07:53:06.589Z,56.44
2023-05-13T07:54:06.600Z,58.00
2023-05-13T07:55:06.594Z,56.44
2023-05-13T07:56:06.600Z,56.79
2023-05-13T07:57:06.601Z,56.74
2023-05-13T07:58:06.663Z,56.77
2023-05-13T07:59:06.606Z,57.71
2023-05-13T08:00:06.622Z,57.41
2023-05-13T08:01:06.618Z,57.61
2023-05-13T08:02:06.624Z,57.34
2023-05-13T08:03:06.728Z,57.12
2023-05-13T08:04:06.755Z,58.70
2023-05-13T08:05:06.787Z,57.61
2023-05-13T08:06:06.672Z,57.93
2023-05-13T08:07:06.663Z,57.93
2023-05-13T08:08:06.660Z,57.24
2023-05-13T08:09:06.660Z,58.60
2023-05-13T08:10:06.672Z,57.71
2023-05-13T08:11:06.671Z,59.00
2023-05-13T08:12:06.677Z,57.54
2023-05-13T08:13:06.692Z,58.06
2023-05-13T08:14:06.691Z,57.10
2023-05-13T08:15:06.697Z,57.79
2023-05-13T08:16:06.715Z,59.05
2023-05-13T08:17:06.714Z,58.65
2023-05-13T08:18:06.775Z,59.32
2023-05-13T08:19:06.768Z,57.97
2023-05-13T08:20:06.734Z,56.97
2023-05-13T08:21:06.746Z,58.06
2023-05-13T08:22:06.777Z,58.36
2023-05-13T08:23:06.761Z,58.36
2023-05-13T08:24:06.765Z,57.29
2023-05-13T08:25:06.775Z,58.48
2023-05-13T08:26:06.785Z,57.27
2023-05-13T08:27:06.790Z,57.86
2023-05-13T08:28:06.800Z,58.73
2023-05-13T08:29:06.827Z,59.03
2023-05-13T08:30:06.812Z,58.83
2023-05-13T08:31:06.823Z,57.44
2023-05-13T08:32:06.875Z,58.23
2023-05-13T08:33:06.854Z,57.44
2023-05-13T08:34:06.853Z,56.45
2023-05-13T08:35:06.856Z,57.41
2023-05-13T08:36:06.853Z,56.62
2023-05-13T08:37:06.868Z,56.07
2023-05-13T08:38:06.906Z,55.47
2023-05-13T08:39:06.886Z,56.57
2023-05-13T08:40:06.893Z,56.49
2023-05-13T08:41:06.902Z,56.14
2023-05-13T08:42:06.916Z,54.66
2023-05-13T08:43:06.923Z,56.74
2023-05-13T08:44:06.986Z,56.61
2023-05-13T08:45:06.941Z,55.03
2023-05-13T08:46:06.988Z,54.66
2023-05-13T08:47:06.965Z,55.13
2023-05-13T08:48:07.004Z,55.35
2023-05-13T08:49:06.982Z,54.93
2023-05-13T08:50:06.995Z,53.64
2023-05-13T08:51:07.008Z,54.48
2023-05-13T08:52:07.010Z,55.96
2023-05-13T08:53:07.024Z,56.01
2023-05-13T08:54:07.056Z,53.64
2023-05-13T08:55:07.045Z,54.80
2023-05-13T08:56:07.063Z,53.78
2023-05-13T08:57:07.075Z,52.38
2023-05-13T08:58:07.081Z,52.85
2023-05-13T08:59:07.098Z,52.48
2023-05-13T09:00:07.112Z,51.99
2023-05-13T09:01:07.145Z,53.32
2023-05-13T09:02:07.130Z,52.16
2023-05-13T09:03:07.252Z,52.92
2023-05-13T09:04:07.269Z,52.43
2023-05-13T09:05:07.222Z,51.87
2023-05-13T09:06:07.194Z,52.14
2023-05-13T09:07:07.197Z,53.07
2023-05-13T09:08:07.219Z,51.03
2023-05-13T09:09:07.226Z,50.73
2023-05-13T09:10:07.270Z,50.90
2023-05-13T09:11:07.261Z,50.27
2023-05-13T09:12:07.266Z,50.59
2023-05-13T09:13:07.284Z,49.43
2023-05-13T09:14:07.313Z,49.21
2023-05-13T09:15:07.324Z,50.88
2023-05-13T09:16:07.360Z,50.76
2023-05-13T09:17:07.349Z,50.83
2023-05-13T09:18:07.448Z,50.22
2023-05-13T09:19:07.455Z,49.99
2023-05-13T09:20:07.466Z,47.94
2023-05-13T09:21:07.402Z,47.77
2023-05-13T09:22:07.410Z,49.46
2023-05-13T09:23:07.446Z,49.43
2023-05-13T09:24:08.878Z,48.70
2023-05-13T09:25:07.464Z,46.86
2023-05-13T09:26:07.501Z,48.07
2023-05-13T09:27:07.496Z,46.08
2023-05-13T09:28:07.522Z,46.67
2023-05-13T09:29:07.535Z,47.89
2023-05-13T09:30:07.557Z,45.45
2023-05-13T09:31:07.591Z,45.92
2023-05-13T09:32:07.580Z,45.43
2023-05-13T09:33:07.732Z,45.82
2023-05-13T09:34:07.613Z,45.30
2023-05-13T09:35:07.630Z,46.66
2023-05-13T09:36:07.653Z,47.52
2023-05-13T09:37:07.703Z,45.34
2023-05-13T09:38:07.686Z,46.00
2023-05-13T09:39:07.738Z,46.26
2023-05-13T09:40:07.719Z,48.47
2023-05-13T09:41:07.756Z,50.34
2023-05-13T09:42:07.779Z,49.40
2023-05-13T09:43:07.782Z,49.04
2023-05-13T09:44:07.788Z,50.61
2023-05-13T09:45:07.815Z,48.88
2023-05-13T09:46:07.822Z,49.08
2023-05-13T09:47:07.984Z,50.46
2023-05-13T09:48:07.880Z,50.38
2023-05-13T09:49:07.884Z,49.92
2023-05-13T09:50:07.890Z,49.15
2023-05-13T09:51:07.899Z,48.58
2023-05-13T09:52:07.937Z,49.89
2023-05-13T09:53:07.931Z,50.19
2023-05-13T09:54:07.941Z,49.37
2023-05-13T09:55:07.969Z,50.04
2023-05-13T09:56:07.975Z,51.03
2023-05-13T09:57:07.988Z,51.03
2023-05-13T09:58:08.018Z,49.74
2023-05-13T09:59:08.042Z,50.31
2023-05-13T10:01:08.070Z,48.02
2023-05-13T10:02:08.048Z,48.91
2023-05-13T10:03:08.136Z,48.59
2023-05-13T10:04:08.120Z,46.32
2023-05-13T10:05:08.088Z,46.42
2023-05-13T10:06:08.117Z,46.62
2023-05-13T10:07:08.109Z,47.09
2023-05-13T10:08:08.119Z,48.27
2023-05-13T10:09:08.127Z,47.85
2023-05-13T10:10:08.136Z,46.97
2023-05-13T10:11:08.167Z,47.83
2023-05-13T10:12:08.170Z,47.41
2023-05-13T10:13:08.170Z,47.14
2023-05-13T10:14:08.204Z,47.00
2023-05-13T10:15:08.192Z,46.97
2023-05-13T10:16:08.232Z,47.86
2023-05-13T10:17:08.260Z,48.18
2023-05-13T10:18:08.234Z,46.20
2023-05-13T10:19:08.310Z,46.51
2023-05-13T10:20:08.228Z,47.69
2023-05-13T10:21:08.251Z,47.84
2023-05-13T10:22:08.245Z,46.47
2023-05-13T10:23:08.263Z,47.17
2023-05-13T10:24:08.277Z,47.84
2023-05-13T10:25:08.276Z,47.84
2023-05-13T10:26:08.295Z,46.44
2023-05-13T10:27:08.318Z,47.13
2023-05-13T10:28:08.304Z,47.50
2023-05-13T10:29:08.316Z,47.60
2023-05-13T10:30:08.341Z,47.47
2023-05-13T10:31:08.328Z,45.64
2023-05-13T10:32:08.408Z,45.73
2023-05-13T10:33:08.397Z,45.73
2023-05-13T10:34:08.368Z,45.73
2023-05-13T10:35:08.369Z,45.32
2023-05-13T10:36:08.372Z,44.19
2023-05-13T10:37:08.385Z,44.21
2023-05-13T10:38:08.389Z,45.25
2023-05-13T10:39:08.402Z,45.15
2023-05-13T10:40:08.404Z,44.34
2023-05-13T10:41:08.423Z,44.54
2023-05-13T10:42:08.429Z,45.89
2023-05-13T10:43:08.441Z,44.10
2023-05-13T10:44:09.887Z,44.01
2023-05-13T10:45:08.464Z,44.09
2023-05-13T10:46:08.600Z,44.38
2023-05-13T10:47:08.503Z,44.30
2023-05-13T10:48:08.604Z,43.54
2023-05-13T10:49:08.509Z,43.44
2023-05-13T10:50:08.537Z,43.07
2023-05-13T10:51:08.535Z,41.99
2023-05-13T10:52:08.552Z,43.46
2023-05-13T10:53:08.551Z,44.69
2023-05-13T10:54:08.567Z,44.77
2023-05-13T10:55:08.575Z,44.31
2023-05-13T10:56:08.592Z,43.51
2023-05-13T10:57:08.616Z,42.77
2023-05-13T10:58:08.620Z,41.36
2023-05-13T10:59:08.630Z,43.10
2023-05-13T11:00:08.647Z,44.55
2023-05-13T11:01:08.667Z,44.53
2023-05-13T11:02:08.906Z,44.53
2023-05-13T11:03:08.801Z,43.51
2023-05-13T11:04:08.849Z,42.97
2023-05-13T11:05:08.730Z,42.94
2023-05-13T11:06:08.732Z,42.59
2023-05-13T11:07:08.743Z,43.00
2023-05-13T11:08:08.764Z,43.10
2023-05-13T11:09:08.780Z,41.56
2023-05-13T11:10:08.802Z,42.16
2023-05-13T11:11:08.804Z,43.24
2023-05-13T11:12:08.830Z,41.99
2023-05-13T11:13:08.853Z,42.58
2023-05-13T11:14:09.024Z,41.82
2023-05-13T11:15:08.880Z,42.79
2023-05-13T11:16:08.915Z,42.87
2023-05-13T11:17:08.921Z,42.75
2023-05-13T11:18:08.993Z,43.02
2023-05-13T11:19:08.989Z,42.89
2023-05-13T11:20:08.985Z,42.60
2023-05-13T11:21:08.990Z,43.55
2023-05-13T11:22:09.005Z,44.12
2023-05-13T11:23:09.026Z,43.57
2023-05-13T11:24:09.057Z,42.00
2023-05-13T11:25:09.125Z,42.66
2023-05-13T11:26:11.900Z,41.32
2023-05-13T11:27:09.107Z,41.89
2023-05-13T11:28:09.123Z,42.83
2023-05-13T11:29:09.143Z,42.83
2023-05-13T11:30:09.162Z,41.87
2023-05-13T11:31:09.201Z,43.33
2023-05-13T11:32:09.209Z,42.54
2023-05-13T11:33:09.251Z,43.32
2023-05-13T11:34:09.269Z,41.93
2023-05-13T11:35:09.265Z,41.52
2023-05-13T11:36:09.282Z,41.40
2023-05-13T11:37:09.325Z,41.57
2023-05-13T11:38:09.330Z,41.55
2023-05-13T11:39:09.347Z,42.70
2023-05-13T11:40:09.371Z,42.25
2023-05-13T11:41:09.396Z,41.55
2023-05-13T11:42:09.437Z,41.55
2023-05-13T11:43:09.454Z,40.78
2023-05-13T11:44:09.459Z,41.36
2023-05-13T11:45:09.479Z,40.97
2023-05-13T11:46:09.539Z,41.36
2023-05-13T11:47:09.526Z,40.89
2023-05-13T11:48:09.624Z,41.40
2023-05-13T11:49:09.590Z,41.44
2023-05-13T11:50:09.616Z,40.54
2023-05-13T11:51:09.628Z,41.51
2023-05-13T11:52:09.640Z,41.80
2023-05-13T11:53:09.659Z,41.03
2023-05-13T11:54:09.683Z,40.68
2023-05-13T11:55:09.705Z,41.30
2023-05-13T11:56:09.727Z,42.63
2023-05-13T11:57:09.750Z,41.75
2023-05-13T11:58:09.777Z,40.97
2023-05-13T11:59:09.800Z,41.11
2023-05-13T12:00:09.828Z,40.91
2023-05-13T12:01:09.849Z,41.42
2023-05-13T12:02:09.890Z,42.61
2023-05-13T12:03:09.951Z,41.52
2023-05-13T12:04:09.925Z,41.36
2023-05-13T12:05:10.024Z,42.93
2023-05-13T12:06:10.001Z,43.62
2023-05-13T12:07:09.995Z,43.30
2023-05-13T12:08:10.027Z,43.28
2023-05-13T12:09:10.056Z,44.14
2023-05-13T12:10:10.072Z,42.71
2023-05-13T12:11:10.101Z,43.15
2023-05-13T12:12:10.110Z,41.03
2023-05-13T12:13:10.135Z,41.50
2023-05-13T12:14:10.163Z,41.96
2023-05-13T12:15:10.189Z,41.19
2023-05-13T12:16:10.253Z,41.05
2023-05-13T12:17:10.233Z,42.49
2023-05-13T12:18:10.323Z,42.74
2023-05-13T12:19:10.487Z,41.19
2023-05-13T12:20:10.309Z,41.14
2023-05-13T12:21:10.329Z,41.32
2023-05-13T12:22:10.392Z,41.59
2023-05-13T12:23:10.372Z,41.01
2023-05-13T12:24:10.400Z,41.10
2023-05-13T12:25:10.422Z,41.28
2023-05-13T12:26:10.446Z,42.24
2023-05-13T12:27:11.666Z,42.25
2023-05-13T12:28:10.495Z,41.83
2023-05-13T12:29:10.516Z,41.60
2023-05-13T12:30:10.680Z,41.01
2023-05-13T12:31:10.587Z,41.20
2023-05-13T12:32:10.609Z,41.89
2023-05-13T12:33:10.653Z,41.57
2023-05-13T12:34:10.640Z,41.85
2023-05-13T12:35:10.661Z,41.48
2023-05-13T12:36:10.688Z,41.40
2023-05-13T12:37:10.776Z,41.91
2023-05-13T12:38:10.764Z,42.91
2023-05-13T12:39:10.775Z,42.41
2023-05-13T12:40:10.786Z,42.00
2023-05-13T12:41:10.808Z,42.36
2023-05-13T12:42:10.834Z,42.68
2023-05-13T12:43:10.856Z,42.08
2023-05-13T12:44:10.887Z,41.46
2023-05-13T12:45:10.905Z,43.38
2023-05-13T12:46:10.949Z,43.75
2023-05-13T12:47:11.036Z,43.12
2023-05-13T12:48:11.017Z,43.25
2023-05-13T12:49:11.000Z,41.50
2023-05-13T12:50:11.036Z,41.71
2023-05-13T12:51:11.049Z,42.57
2023-05-13T12:52:11.074Z,42.10
2023-05-13T12:53:11.118Z,42.90
2023-05-13T12:54:11.154Z,44.44